Time;durP1;ratioP1;P1;durP2;ratioP2;P2;SDS_P1;SDS_P2;PMS_P1;PMS_P2;Temp;Humidity;BMP_temperature;BMP_pressure;BME280_temperature;BME280_humidity;BME280_pressure;Samples;Min_cycle;Max_cycle;Signal;HPM_P1;HPM_P2
2021/11/26 00:01:27;;;;;;;29.77;20.20;;;;;;;2.41;57.57;99456.09;5042017;28;20086;-82
2021/11/26 00:03:52;;;;;;;29.70;18.00;;;;;;;3.32;57.85;99643.13;5042636;28;20068;-82
2021/11/26 00:06:18;;;;;;;26.67;18.23;;;;;;;3.18;57.19;99584.28;5042033;28;20040;-82
2021/11/26 00:08:43;;;;;;;27.50;18.37;;;;;;;2.23;57.57;99434.19;5042260;28;20507;-82
2021/11/26 00:11:09;;;;;;;26.57;19.07;;;;;;;2.40;57.39;99396.28;5041836;28;20037;-81
2021/11/26 00:13:45;;;;;;;38.00;23.60;;;;;;;3.57;57.29;99591.44;5041492;28;20029;-81
2021/11/26 00:16:18;;;;;;;28.27;20.50;;;;;;;2.92;57.35;99554.31;5042743;28;20029;-81
2021/11/26 00:18:49;;;;;;;27.43;18.07;;;;;;;2.28;57.30;99426.81;5044163;28;20026;-81
2021/11/26 00:21:14;;;;;;;31.00;20.27;;;;;;;2.63;57.44;99456.88;5048658;28;20080;-81
2021/11/26 00:23:40;;;;;;;28.90;19.60;;;;;;;3.32;57.39;99590.94;5043619;28;20061;-82
2021/11/26 00:26:06;;;;;;;32.17;21.93;;;;;;;4.19;57.01;99698.34;5044810;28;20033;-82
2021/11/26 00:28:31;;;;;;;29.10;18.43;;;;;;;3.26;57.19;99594.06;5044391;28;20030;-82
2021/11/26 00:30:57;;;;;;;23.90;16.97;;;;;;;3.39;57.04;99633.00;5044995;28;20063;-82
2021/11/26 00:33:23;;;;;;;28.90;17.40;;;;;;;1.56;57.32;99320.81;5044061;28;20022;-82
2021/11/26 00:35:49;;;;;;;25.90;16.80;;;;;;;2.66;57.32;99493.94;5045376;28;20060;-82
2021/11/26 00:38:15;;;;;;;25.33;17.10;;;;;;;4.32;57.19;99766.03;5045080;28;20029;-81
2021/11/26 00:40:41;;;;;;;24.30;17.23;;;;;;;3.22;57.43;99597.88;5043497;28;20022;-81
2021/11/26 00:43:07;;;;;;;20.97;15.97;;;;;;;3.34;57.51;99641.22;5044458;28;20091;-81
2021/11/26 00:45:32;;;;;;;21.27;15.63;;;;;;;3.14;57.84;99588.09;5044522;28;20030;-82
2021/11/26 00:47:58;;;;;;;21.67;14.67;;;;;;;1.87;57.54;99417.19;5046948;28;20030;-81
2021/11/26 00:50:24;;;;;;;22.23;14.90;;;;;;;2.88;57.54;99599.88;5046811;28;20719;-81
2021/11/26 00:52:49;;;;;;;20.90;13.83;;;;;;;2.38;57.72;99520.66;5047855;28;20033;-82
2021/11/26 00:55:15;;;;;;;17.27;13.83;;;;;;;2.24;57.47;99513.97;5046170;28;20097;-81
2021/11/26 00:57:41;;;;;;;18.47;13.37;;;;;;;1.59;57.60;99396.03;5047212;28;20564;-81
2021/11/26 01:00:10;;;;;;;16.73;12.83;;;;;;;3.93;57.71;99765.06;5046228;28;20048;-81
2021/11/26 01:02:36;;;;;;;18.00;12.33;;;;;;;2.37;57.77;99503.38;5044567;28;20035;-81
2021/11/26 01:05:02;;;;;;;17.63;12.73;;;;;;;0.98;57.55;99309.09;5043724;28;20093;-81
2021/11/26 01:07:28;;;;;;;16.20;12.47;;;;;;;1.90;57.73;99454.22;5041366;28;20064;-81
2021/11/26 01:09:53;;;;;;;20.73;13.93;;;;;;;2.44;57.73;99494.91;5041398;28;20033;-82
2021/11/26 01:12:19;;;;;;;17.00;12.33;;;;;;;1.08;57.40;99317.81;5041982;28;20159;-81
2021/11/26 01:14:45;;;;;;;19.77;13.03;;;;;;;3.57;57.41;99688.84;5041290;28;20031;-81
2021/11/26 01:17:11;;;;;;;16.27;12.23;;;;;;;1.37;57.43;99322.41;5040313;28;20033;-81
2021/11/26 01:19:36;;;;;;;16.87;11.47;;;;;;;0.50;57.16;99171.75;5041641;28;20033;-81
2021/11/26 01:22:02;;;;;;;16.70;12.03;;;;;;;1.87;57.71;99396.38;5045016;28;20116;-81
2021/11/26 01:24:28;;;;;;;19.20;13.10;;;;;;;2.65;57.39;99494.06;5044695;28;20055;-81
2021/11/26 01:26:53;;;;;;;17.53;13.67;;;;;;;1.06;57.77;99253.88;5047815;28;20022;-81
2021/11/26 01:29:19;;;;;;;17.33;12.87;;;;;;;2.63;57.43;99546.34;5052338;28;20025;-81
2021/11/26 01:31:45;;;;;;;16.67;13.50;;;;;;;1.48;57.51;99356.19;5045657;28;20068;-81
2021/11/26 01:34:12;;;;;;;17.17;13.07;;;;;;;2.65;57.78;99500.13;5047220;28;20022;-82
2021/11/26 01:36:37;;;;;;;16.63;11.77;;;;;;;2.60;57.62;99517.09;5046661;28;20033;-82
2021/11/26 01:39:04;;;;;;;16.20;12.23;;;;;;;3.33;57.91;99600.41;5047650;28;20029;-82
2021/11/26 01:41:30;;;;;;;15.30;11.33;;;;;;;1.25;57.72;99298.25;5047707;28;20029;-82
2021/11/26 01:43:55;;;;;;;14.47;12.00;;;;;;;2.01;58.00;99380.44;5046732;28;20029;-82
2021/11/26 01:46:21;;;;;;;14.73;10.47;;;;;;;1.20;57.59;99228.41;5046599;28;20053;-82
2021/11/26 01:48:46;;;;;;;13.50;10.17;;;;;;;3.71;57.75;99656.34;5046342;28;20025;-81
2021/11/26 01:51:12;;;;;;;14.70;10.70;;;;;;;2.06;58.03;99399.09;5048159;28;20022;-81
2021/11/26 01:53:39;;;;;;;15.40;10.80;;;;;;;2.01;57.69;99330.13;5048240;28;20025;-82
2021/11/26 01:56:05;;;;;;;13.83;10.30;;;;;;;3.74;58.00;99677.00;5050987;28;20049;-82
2021/11/26 01:58:32;;;;;;;18.80;11.97;;;;;;;2.25;57.76;99380.19;5050784;28;20044;-81
2021/11/26 02:00:59;;;;;;;16.53;12.00;;;;;;;1.52;57.92;99271.75;5049889;28;20053;-81
2021/11/26 02:03:25;;;;;;;18.53;13.33;;;;;;;2.75;57.88;99481.91;5050036;28;20029;-81
2021/11/26 02:05:51;;;;;;;18.47;14.17;;;;;;;2.10;57.64;99340.59;5049419;28;20040;-82
2021/11/26 02:08:16;;;;;;;19.17;13.63;;;;;;;1.85;57.88;99339.22;5049030;28;20029;-82
2021/11/26 02:10:42;;;;;;;29.37;17.70;;;;;;;3.85;57.64;99616.03;5048461;28;20080;-81
2021/11/26 02:13:08;;;;;;;22.63;15.03;;;;;;;2.87;57.76;99457.41;5046247;28;20018;-82
2021/11/26 02:15:40;;;;;;;21.77;14.10;;;;;;;3.82;57.41;99617.94;5045969;28;20056;-82
2021/11/26 02:18:06;;;;;;;;;;;;;;;3.61;58.04;99605.88;5044266;28;20040;-81
2021/11/26 02:20:32;;;;;;;19.47;13.57;;;;;;;1.94;58.08;99332.41;5044672;28;19912;-82
2021/11/26 02:22:58;;;;;;;20.00;13.87;;;;;;;1.88;57.77;99358.97;5043515;28;20056;-81
2021/11/26 02:25:25;;;;;;;19.27;13.67;;;;;;;2.40;57.81;99454.44;5043037;28;20025;-81
2021/11/26 02:27:53;;;;;;;16.37;12.17;;;;;;;3.64;57.96;99656.03;5043375;28;20037;-81
2021/11/26 02:30:19;;;;;;;16.87;12.10;;;;;;;2.48;57.74;99423.34;5043719;28;20052;-82
2021/11/26 02:32:56;;;;;;;15.70;11.30;;;;;;;3.25;57.60;99576.75;5044878;28;20025;-81
2021/11/26 02:35:23;;;;;;;14.77;10.37;;;;;;;3.02;57.91;99552.63;5047318;28;20097;-81
2021/11/26 02:37:49;;;;;;;15.37;10.50;;;;;;;2.13;57.92;99423.66;5051907;28;20422;-82
2021/11/26 02:40:17;;;;;;;15.00;9.73;;;;;;;2.12;58.19;99442.84;5045894;28;20029;-82
2021/11/26 02:42:43;;;;;;;14.83;10.53;;;;;;;0.84;58.15;99262.59;5046230;28;20029;-81
2021/11/26 02:45:11;;;;;;;13.83;9.73;;;;;;;1.75;58.09;99400.81;5046855;28;20091;-81
2021/11/26 02:47:39;;;;;;;15.13;10.63;;;;;;;2.13;57.71;99405.44;5046431;28;20045;-81
2021/11/26 02:50:07;;;;;;;14.77;11.33;;;;;;;2.29;57.82;99436.28;5046048;28;20061;-81
2021/11/26 02:52:34;;;;;;;15.67;9.73;;;;;;;0.64;58.21;99179.25;5045031;28;20036;-82
2021/11/26 02:54:59;;;;;;;15.40;10.93;;;;;;;1.11;57.75;99286.34;5045606;28;20096;-82
2021/11/26 02:57:25;;;;;;;14.97;10.50;;;;;;;2.36;57.63;99507.75;5047898;28;20033;-82
2021/11/26 02:59:51;;;;;;;15.27;10.90;;;;;;;1.63;57.93;99341.94;5047926;28;20055;-82
2021/11/26 03:02:17;;;;;;;15.00;10.30;;;;;;;1.65;57.59;99360.88;5046711;28;20040;-82
2021/11/26 03:04:42;;;;;;;13.53;10.67;;;;;;;1.84;58.10;99381.81;5049228;28;20025;-82
2021/11/26 03:07:10;;;;;;;14.47;10.57;;;;;;;1.57;57.78;99335.47;5048868;28;20060;-82
2021/11/26 03:09:37;;;;;;;16.47;10.83;;;;;;;2.05;57.95;99386.19;5046923;28;20090;-82
2021/11/26 03:12:04;;;;;;;14.73;11.00;;;;;;;1.25;57.47;99254.84;5045611;28;20025;-82
2021/11/26 03:14:29;;;;;;;13.87;10.20;;;;;;;1.84;57.50;99365.38;5046932;28;20032;-82
2021/11/26 03:16:55;;;;;;;15.80;10.70;;;;;;;2.82;58.18;99551.66;5047595;28;20033;-82
2021/11/26 03:19:20;;;;;;;15.23;10.83;;;;;;;1.12;58.05;99249.00;5046527;28;20029;-82
2021/11/26 03:21:46;;;;;;;15.10;11.33;;;;;;;2.29;57.82;99438.06;5044848;28;20033;-82
2021/11/26 03:24:11;;;;;;;12.43;9.83;;;;;;;3.32;57.90;99597.94;5042592;28;20087;-82
2021/11/26 03:26:37;;;;;;;14.23;10.37;;;;;;;2.48;57.68;99459.00;5041316;28;20524;-82
2021/11/26 03:29:03;;;;;;;15.80;10.67;;;;;;;2.91;57.54;99484.88;5042489;28;20025;-82
2021/11/26 03:31:28;;;;;;;16.23;11.30;;;;;;;0.75;57.30;99131.63;5043221;28;20026;-81
2021/11/26 03:33:54;;;;;;;15.60;11.53;;;;;;;3.16;57.72;99535.81;5043655;28;20127;-82
2021/11/26 03:36:19;;;;;;;16.37;12.30;;;;;;;1.74;57.82;99349.69;5042247;28;20073;-81
2021/11/26 03:38:45;;;;;;;14.77;11.10;;;;;;;2.20;57.71;99382.31;5041419;28;20044;-81
2021/11/26 03:41:11;;;;;;;16.63;11.53;;;;;;;1.59;57.96;99284.13;5043823;28;20041;-82
2021/11/26 03:43:37;;;;;;;18.57;12.30;;;;;;;1.09;57.93;99199.03;5043779;28;20037;-82
2021/11/26 03:46:03;;;;;;;16.80;11.83;;;;;;;0.83;58.23;99149.19;5050485;28;20029;-82
2021/11/26 03:48:29;;;;;;;17.90;11.23;;;;;;;0.43;58.34;99071.91;5044593;28;20025;-82
2021/11/26 03:50:55;;;;;;;17.77;12.60;;;;;;;1.81;58.33;99304.00;5045562;28;20036;-81
2021/11/26 03:53:20;;;;;;;19.80;12.63;;;;;;;1.58;58.22;99264.28;5045723;28;20053;-81
2021/11/26 03:55:46;;;;;;;19.20;13.27;;;;;;;2.59;58.64;99458.09;5044117;28;20033;-81
2021/11/26 03:58:12;;;;;;;19.20;13.27;;;;;;;0.37;58.27;99074.19;5044375;28;20037;-81
2021/11/26 04:00:37;;;;;;;18.90;14.03;;;;;;;1.67;58.27;99252.28;5044470;28;20029;-81
2021/11/26 04:03:03;;;;;;;19.17;13.27;;;;;;;2.13;58.26;99326.50;5044527;28;20037;-82
2021/11/26 04:05:29;;;;;;;17.13;13.40;;;;;;;0.48;57.90;99058.53;5046060;28;20030;-81
2021/11/26 04:07:54;;;;;;;20.87;14.03;;;;;;;2.11;57.83;99300.56;5045475;28;20029;-81
2021/11/26 04:10:20;;;;;;;20.80;14.53;;;;;;;1.71;57.68;99240.66;5046100;28;20036;-82
2021/11/26 04:12:48;;;;;;;18.00;14.07;;;;;;;2.67;58.19;99351.41;5047422;28;20029;-82
2021/11/26 04:15:14;;;;;;;18.37;13.13;;;;;;;1.86;57.97;99221.13;5047032;28;20090;-81
2021/11/26 04:17:41;;;;;;;20.20;13.70;;;;;;;0.99;57.93;99066.41;5047032;28;20035;-82
2021/11/26 04:20:09;;;;;;;20.00;13.20;;;;;;;0.96;58.05;99097.84;5045824;28;20026;-82
2021/11/26 04:22:34;;;;;;;22.80;15.90;;;;;;;1.12;58.39;99072.22;5045730;28;20032;-82
2021/11/26 04:25:00;;;;;;;23.77;13.73;;;;;;;2.43;58.24;99307.44;5045893;28;20021;-81
2021/11/26 04:27:26;;;;;;;29.23;18.13;;;;;;;0.80;58.25;99067.13;5047078;28;20029;-82
2021/11/26 04:29:52;;;;;;;36.20;18.30;;;;;;;2.50;57.91;99332.84;5044923;28;20418;-82
2021/11/26 04:32:17;;;;;;;39.87;19.37;;;;;;;1.12;57.70;99082.63;5044274;28;20517;-82
2021/11/26 04:34:43;;;;;;;28.37;17.17;;;;;;;1.16;58.15;99101.38;5041065;28;20021;-82
2021/11/26 04:37:09;;;;;;;25.97;17.27;;;;;;;1.97;57.87;99238.44;5041192;28;20033;-82
2021/11/26 04:39:34;;;;;;;36.87;16.77;;;;;;;1.55;58.15;99185.66;5042810;28;20029;-81
2021/11/26 04:42:00;;;;;;;25.63;17.10;;;;;;;2.42;58.04;99342.28;5041048;28;20038;-82
2021/11/26 04:44:25;;;;;;;25.13;16.43;;;;;;;1.16;58.20;99120.41;5041676;28;20029;-82
2021/11/26 04:46:51;;;;;;;25.03;16.07;;;;;;;1.27;58.14;99176.72;5041477;28;20037;-82
2021/11/26 04:49:16;;;;;;;26.67;16.47;;;;;;;2.97;58.43;99411.34;5042544;28;20047;-82
2021/11/26 04:51:42;;;;;;;25.83;16.70;;;;;;;1.44;58.55;99131.91;5044182;28;20030;-82
2021/11/26 04:54:07;;;;;;;29.47;17.87;;;;;;;1.97;58.89;99232.41;5049062;28;20024;-82
2021/11/26 04:56:33;;;;;;;24.37;17.47;;;;;;;2.29;58.50;99300.81;5048228;28;20092;-82
2021/11/26 04:58:59;;;;;;;32.07;19.03;;;;;;;0.97;58.34;99102.09;5048607;28;20036;-82
2021/11/26 05:01:25;;;;;;;30.10;19.93;;;;;;;1.75;58.60;99207.38;5049375;28;20108;-81
2021/11/26 05:03:51;;;;;;;31.93;20.90;;;;;;;0.75;58.31;99032.09;5048963;28;20021;-82
2021/11/26 05:06:18;;;;;;;35.13;21.13;;;;;;;2.00;58.61;99222.56;5048757;28;20028;-82
2021/11/26 05:08:43;;;;;;;34.10;22.57;;;;;;;1.97;58.25;99228.03;5046608;28;20029;-82
2021/11/26 05:11:09;;;;;;;38.03;21.30;;;;;;;2.21;58.55;99298.00;5049175;28;20029;-82
2021/11/26 05:13:41;;;;;;;34.77;21.27;;;;;;;1.82;58.08;99203.28;5047931;28;20021;-82
2021/11/26 05:16:06;;;;;;;39.95;20.98;;;;;;;1.61;58.27;99179.09;5050970;28;20025;-82
2021/11/26 05:18:32;;;;;;;29.50;19.63;;;;;;;1.96;58.19;99244.59;5047427;28;20056;-82
2021/11/26 05:20:57;;;;;;;34.10;21.03;;;;;;;1.36;57.90;99128.28;5050954;28;20040;-82
2021/11/26 05:23:24;;;;;;;31.90;17.90;;;;;;;1.62;57.97;99137.34;5049178;28;20025;-82
2021/11/26 05:25:50;;;;;;;30.27;18.67;;;;;;;1.94;58.09;99188.41;5049899;28;20072;-82
2021/11/26 05:28:16;;;;;;;33.20;20.17;;;;;;;3.51;58.11;99483.16;5049621;28;20104;-82
2021/11/26 05:30:43;;;;;;;31.17;19.80;;;;;;;0.67;58.19;99027.50;5049436;28;20035;-82
2021/11/26 05:33:09;;;;;;;35.93;19.47;;;;;;;3.23;58.34;99405.66;5050039;28;20028;-82
2021/11/26 05:35:35;;;;;;;29.57;20.23;;;;;;;1.45;58.25;99167.34;5050792;28;20094;-82
2021/11/26 05:38:01;;;;;;;36.10;22.03;;;;;;;1.26;58.47;99097.88;5048585;28;20032;-82
2021/11/26 05:40:26;;;;;;;36.23;24.07;;;;;;;2.59;58.55;99302.56;5045384;28;20025;-82
2021/11/26 05:42:52;;;;;;;45.00;28.20;;;;;;;2.52;58.55;99349.16;5028063;28;20033;-82
2021/11/26 05:45:19;;;;;;;58.43;30.70;;;;;;;2.32;58.66;99320.56;5046389;28;20048;-82
2021/11/26 05:47:45;;;;;;;58.57;30.03;;;;;;;0.86;58.68;99058.00;5046023;28;20060;-82
2021/11/26 05:50:14;;;;;;;57.93;32.83;;;;;;;1.36;59.14;99110.09;5045666;28;20029;-82
2021/11/26 05:52:40;;;;;;;62.10;34.07;;;;;;;1.74;58.63;99170.13;5044753;28;20025;-82
2021/11/26 05:55:08;;;;;;;64.03;36.33;;;;;;;1.17;58.95;99108.22;5044372;28;20032;-82
2021/11/26 05:57:35;;;;;;;67.67;36.33;;;;;;;1.92;58.85;99209.38;5046115;28;20048;-82
2021/11/26 06:00:00;;;;;;;73.00;41.73;;;;;;;1.85;59.09;99148.38;5047847;28;20029;-82
2021/11/26 06:02:26;;;;;;;73.83;39.90;;;;;;;1.26;58.80;99087.47;5052595;28;20040;-82
2021/11/26 06:04:51;;;;;;;68.87;38.90;;;;;;;1.37;59.01;99088.34;5047433;28;20048;-82
2021/11/26 06:07:17;;;;;;;65.33;35.00;;;;;;;3.58;58.79;99392.09;5046272;28;20025;-81
2021/11/26 06:09:42;;;;;;;57.87;33.23;;;;;;;1.98;58.43;99208.00;5047328;28;20064;-82
2021/11/26 06:12:10;;;;;;;59.33;36.50;;;;;;;1.92;58.29;99181.56;5047028;28;20099;-82
2021/11/26 06:14:36;;;;;;;59.70;34.17;;;;;;;2.77;58.88;99237.56;5048293;28;20021;-82
2021/11/26 06:17:03;;;;;;;58.13;33.43;;;;;;;2.44;58.57;99184.03;5047092;28;20032;-81
2021/11/26 06:19:28;;;;;;;53.23;35.00;;;;;;;3.34;58.15;99314.19;5047841;28;20093;-82
2021/11/26 06:21:53;;;;;;;53.73;31.20;;;;;;;2.98;58.51;99271.38;5047606;28;20483;-82
2021/11/26 06:24:19;;;;;;;54.60;33.47;;;;;;;2.50;58.30;99183.50;5048548;28;20029;-82
2021/11/26 06:26:44;;;;;;;46.53;30.10;;;;;;;3.35;58.34;99298.41;5047655;28;20032;-82
2021/11/26 06:29:13;;;;;;;47.00;30.60;;;;;;;1.98;57.85;99018.78;5048930;28;20033;-82
2021/11/26 06:31:39;;;;;;;62.03;35.57;;;;;;;1.74;57.91;98968.91;5049118;28;20032;-82
2021/11/26 06:34:04;;;;;;;53.30;33.83;;;;;;;2.69;57.86;99101.88;5048580;28;20026;-81
2021/11/26 06:36:31;;;;;;;54.77;33.73;;;;;;;4.50;58.18;99429.81;5048279;28;20091;-82
2021/11/26 06:38:57;;;;;;;51.33;32.03;;;;;;;2.31;57.89;99080.09;5048352;28;20029;-82
2021/11/26 06:41:22;;;;;;;52.33;32.90;;;;;;;3.86;58.17;99289.44;5048405;28;20026;-82
2021/11/26 06:43:48;;;;;;;42.03;28.77;;;;;;;3.26;58.28;99234.00;5046395;28;20052;-82
2021/11/26 06:46:13;;;;;;;50.10;29.37;;;;;;;2.96;58.72;99163.72;5045348;28;20028;-82
2021/11/26 06:48:39;;;;;;;54.17;32.03;;;;;;;1.79;58.61;98980.56;5047055;28;20021;-82
2021/11/26 06:51:04;;;;;;;45.33;31.57;;;;;;;4.49;58.17;99407.25;5045264;28;20030;-82
2021/11/26 06:53:30;;;;;;;39.60;27.80;;;;;;;1.82;58.24;98949.03;5054268;28;20051;-82
2021/11/26 06:55:55;;;;;;;47.30;26.40;;;;;;;1.82;58.53;98943.03;5053267;28;20043;-81
2021/11/26 06:58:21;;;;;;;38.40;24.27;;;;;;;2.05;58.28;98970.41;5050946;28;20036;-81
2021/11/26 07:00:46;;;;;;;39.47;24.20;;;;;;;2.56;58.59;99073.50;5053762;28;20048;-82
2021/11/26 07:03:12;;;;;;;35.93;22.90;;;;;;;3.38;58.53;99201.59;5058936;28;20093;-81
2021/11/26 07:05:37;;;;;;;36.03;21.70;;;;;;;3.50;58.54;99184.78;5061741;28;20093;-81
2021/11/26 07:08:03;;;;;;;36.70;20.87;;;;;;;3.72;58.60;99212.38;5062881;28;20027;-81
2021/11/26 07:10:29;;;;;;;33.80;21.60;;;;;;;4.31;58.41;99299.16;5082155;28;20028;-80
2021/11/26 07:12:54;;;;;;;33.90;23.37;;;;;;;4.31;58.61;99299.16;5049081;28;20034;-81
2021/11/26 07:15:20;;;;;;;38.93;23.17;;;;;;;4.40;58.72;99317.44;5052130;28;20035;-81
2021/11/26 07:17:46;;;;;;;36.67;24.87;;;;;;;4.78;58.89;99366.13;5047545;28;20052;-81
2021/11/26 07:20:12;;;;;;;36.93;21.60;;;;;;;4.87;58.45;99368.84;5043689;28;20104;-81
2021/11/26 07:22:38;;;;;;;35.23;20.57;;;;;;;4.64;58.48;99345.69;5042863;28;20504;-81
2021/11/26 07:25:05;;;;;;;45.93;27.60;;;;;;;4.09;58.60;99220.19;5046633;28;20025;-81
2021/11/26 07:27:31;;;;;;;38.93;22.77;;;;;;;4.94;58.80;99357.63;5042288;28;20430;-81
2021/11/26 07:29:56;;;;;;;33.30;21.83;;;;;;;4.34;58.85;99244.00;5060052;28;20112;-81
2021/11/26 07:32:22;;;;;;;33.50;22.87;;;;;;;4.67;58.66;99293.09;5064949;28;20025;-81
2021/11/26 07:34:48;;;;;;;33.40;22.93;;;;;;;4.37;58.93;99220.19;5078567;28;20029;-81
2021/11/26 07:37:13;;;;;;;34.03;24.27;;;;;;;3.75;58.51;99099.81;5062252;28;20758;-82
2021/11/26 07:39:40;;;;;;;39.77;24.07;;;;;;;3.67;58.52;99088.41;5067125;28;20029;-81
2021/11/26 07:42:09;;;;;;;42.97;25.83;;;;;;;3.93;58.83;99130.38;5040865;28;20029;-81
2021/11/26 07:44:37;;;;;;;35.17;23.43;;;;;;;3.88;58.82;99119.53;5055902;28;20029;-82
2021/11/26 07:47:05;;;;;;;38.87;22.37;;;;;;;5.13;59.13;99304.34;5063208;28;20108;-81
2021/11/26 07:49:31;;;;;;;39.93;22.87;;;;;;;4.85;59.16;99260.91;5059829;28;20021;-81
2021/11/26 07:51:57;;;;;;;37.73;21.50;;;;;;;2.15;58.96;98814.16;5042128;28;20056;-81
2021/11/26 07:54:24;;;;;;;34.60;20.17;;;;;;;4.81;59.62;99254.34;5047973;28;20421;-81
2021/11/26 07:56:50;;;;;;;38.00;20.50;;;;;;;4.73;59.57;99244.63;5049605;28;20086;-81
2021/11/26 07:59:15;;;;;;;32.00;19.67;;;;;;;4.97;60.23;99268.41;5053214;28;20473;-82
2021/11/26 08:01:41;;;;;;;34.03;19.03;;;;;;;5.20;59.47;99312.44;5039194;28;20037;-81
2021/11/26 08:04:06;;;;;;;27.63;19.40;;;;;;;4.10;59.79;99114.72;5046182;28;20025;-81
2021/11/26 08:06:32;;;;;;;28.13;17.97;;;;;;;3.93;59.84;99094.63;5057025;28;20036;-81
2021/11/26 08:08:57;;;;;;;30.53;19.17;;;;;;;3.97;60.03;99106.41;5057407;28;20040;-81
2021/11/26 08:11:23;;;;;;;34.17;19.90;;;;;;;2.64;59.74;98861.69;5045514;28;20097;-80
2021/11/26 08:13:48;;;;;;;34.83;20.10;;;;;;;4.61;60.21;99125.53;5049893;28;20025;-82
2021/11/26 08:16:14;;;;;;;42.73;26.93;;;;;;;5.57;60.21;99271.22;5050774;28;20029;-83
2021/11/26 08:18:40;;;;;;;40.03;23.47;;;;;;;5.62;60.35;99279.44;5039108;28;20039;-82
2021/11/26 08:21:05;;;;;;;42.53;24.77;;;;;;;5.14;60.22;99179.56;5051519;28;20031;-83
2021/11/26 08:23:31;;;;;;;34.30;22.20;;;;;;;4.08;60.03;99051.34;5035429;28;20033;-84
2021/11/26 08:26:10;;;;;;;39.47;23.67;;;;;;;4.19;60.23;98999.84;5032016;28;20113;-83
2021/11/26 08:28:36;;;;;;;39.83;23.63;;;;;;;5.14;60.34;99156.03;5063462;28;20063;-84
2021/11/26 08:31:02;;;;;;;42.13;24.63;;;;;;;5.38;60.60;99153.59;5060285;28;20021;-87
2021/11/26 08:33:28;;;;;;;43.33;26.57;;;;;;;4.71;60.20;99025.09;5040136;28;20579;-88
2021/11/26 08:35:54;;;;;;;48.63;29.20;;;;;;;6.00;60.77;99207.50;5035016;28;20104;-88
2021/11/26 08:38:20;;;;;;;47.93;27.70;;;;;;;5.52;60.65;99118.16;5050379;28;20120;-87
2021/11/26 08:40:45;;;;;;;36.83;25.57;;;;;;;5.90;60.39;99167.47;5041913;28;20068;-87
2021/11/26 08:43:11;;;;;;;32.40;20.57;;;;;;;6.03;60.53;99164.44;5033243;28;20024;-81
2021/11/26 08:45:37;;;;;;;25.50;16.07;;;;;;;6.08;60.71;99156.94;5043534;28;20452;-83
2021/11/26 08:48:03;;;;;;;20.07;13.10;;;;;;;6.10;60.81;99143.66;5062292;28;20049;-85
2021/11/26 08:50:29;;;;;;;17.57;12.80;;;;;;;6.38;61.04;99182.56;5050471;28;20052;-81
2021/11/26 08:52:54;;;;;;;14.23;10.63;;;;;;;6.03;60.90;99123.34;5047817;28;20049;-83
2021/11/26 08:55:20;;;;;;;24.20;17.73;;;;;;;6.33;60.74;99145.53;5034544;28;20535;-81
2021/11/26 08:57:55;;;;;;;18.90;14.38;;;;;;;6.30;60.77;99129.28;5038776;28;20418;-84
2021/11/26 09:00:24;;;;;;;20.58;14.75;;;;;;;6.57;60.97;99146.56;5039904;28;20071;-82
2021/11/26 09:02:50;;;;;;;25.05;18.90;;;;;;;6.13;60.75;99101.41;5035016;28;20026;-82
2021/11/26 09:05:15;;;;;;;25.08;19.30;;;;;;;5.92;61.18;98997.00;5069448;28;20123;-82
2021/11/26 09:07:43;;;;;;;28.30;21.45;;;;;;;6.68;61.22;99112.13;5052804;28;20029;-84
2021/11/26 09:10:10;;;;;;;24.48;18.38;;;;;;;6.20;61.14;99011.47;5049080;28;20027;-83
2021/11/26 09:12:35;;;;;;;17.10;13.60;;;;;;;6.11;61.56;98988.88;5041749;28;20158;-82
2021/11/26 09:15:01;;;;;;;22.88;18.23;;;;;;;6.74;61.46;99105.44;5041636;28;20056;-82
2021/11/26 09:17:26;;;;;;;25.30;18.63;;;;;;;6.22;61.75;99009.53;5057422;28;20025;-83
2021/11/26 09:19:52;;;;;;;15.65;12.10;;;;;;;6.49;61.64;99058.19;5038519;28;20041;-80
2021/11/26 09:22:17;;;;;;;18.65;11.80;;;;;;;6.29;61.93;99000.00;5039360;28;20040;-82
2021/11/26 09:24:43;;;;;;;18.23;12.38;;;;;;;6.53;61.79;99024.59;5037116;28;20076;-85
2021/11/26 09:27:08;;;;;;;18.17;13.63;;;;;;;6.77;61.93;99068.38;5032270;28;20033;-84
2021/11/26 09:29:34;;;;;;;16.67;13.57;;;;;;;6.21;61.96;98992.16;5053085;28;20126;-82
2021/11/26 09:32:01;;;;;;;15.88;11.90;;;;;;;6.12;62.29;98948.56;5049525;28;20024;-83
2021/11/26 09:34:27;;;;;;;15.73;11.43;;;;;;;6.67;62.49;99026.53;5043044;28;20328;-85
2021/11/26 09:36:52;;;;;;;17.75;12.45;;;;;;;6.40;62.57;98970.03;5078638;28;20033;-83
2021/11/26 09:39:18;;;;;;;15.70;12.10;;;;;;;6.92;62.20;99035.22;5059764;28;20020;-83
2021/11/26 09:41:43;;;;;;;16.58;12.80;;;;;;;6.76;62.45;98993.28;5056619;28;20039;-84
2021/11/26 09:44:12;;;;;;;15.45;12.32;;;;;;;6.18;62.54;98897.31;5059784;28;20021;-85
2021/11/26 09:46:39;;;;;;;14.90;12.20;;;;;;;6.98;63.01;99000.44;5065443;28;20036;-85
2021/11/26 09:49:06;;;;;;;18.02;13.38;;;;;;;7.04;62.42;98989.28;5045133;28;20037;-83
2021/11/26 09:51:33;;;;;;;19.77;15.13;;;;;;;5.09;63.08;98657.56;5049466;28;20040;-83
2021/11/26 09:53:58;;;;;;;19.80;14.88;;;;;;;6.87;62.93;98925.53;5046393;28;20520;-85
2021/11/26 09:56:24;;;;;;;37.58;25.80;;;;;;;6.71;63.57;98878.34;5038853;28;20033;-84
2021/11/26 09:58:49;;;;;;;25.15;19.25;;;;;;;5.69;63.29;98700.84;5047289;28;20068;-82
2021/11/26 10:01:15;;;;;;;22.30;16.77;;;;;;;7.14;63.49;98920.81;5060758;28;21319;-83
2021/11/26 10:03:47;;;;;;;22.90;15.93;;;;;;;6.57;63.14;98800.34;5060834;28;20028;-81
2021/11/26 10:06:25;;;;;;;23.52;17.52;;;;;;;7.33;63.70;98905.44;5036391;28;20219;-86
2021/11/26 10:08:55;;;;;;;21.05;15.30;;;;;;;6.73;63.65;98802.09;5032336;28;20025;-83
2021/11/26 10:11:27;;;;;;;20.58;15.10;;;;;;;7.01;63.53;98856.56;5051259;28;20430;-82
2021/11/26 10:13:53;;;;;;;18.30;12.85;;;;;;;6.95;63.99;98812.66;5045603;28;20032;-82
2021/11/26 10:16:18;;;;;;;19.55;13.85;;;;;;;7.52;63.82;98875.31;5054925;28;20422;-84
2021/11/26 10:18:50;;;;;;;20.38;14.20;;;;;;;7.85;63.04;98901.34;5052285;28;20025;-83
2021/11/26 10:21:16;;;;;;;22.15;16.02;;;;;;;7.91;63.33;98877.81;5062275;28;20489;-83
2021/11/26 10:23:44;;;;;;;19.13;14.25;;;;;;;7.33;62.43;98781.22;5049700;28;20036;-82
2021/11/26 10:26:22;;;;;;;17.95;14.32;;;;;;;7.95;62.62;98859.88;5057518;28;20033;-85
2021/11/26 10:28:52;;;;;;;21.08;14.98;;;;;;;7.61;62.92;98811.22;5032968;28;20495;-84
2021/11/26 10:31:32;;;;;;;20.10;15.65;;;;;;;7.34;62.41;98746.91;5043135;28;20121;-82
2021/11/26 10:34:00;;;;;;;22.10;16.00;;;;;;;7.09;62.42;98700.84;5060535;28;20017;-82
2021/11/26 10:36:27;;;;;;;26.25;17.98;;;;;;;7.86;62.85;98809.19;5049657;28;20122;-85
2021/11/26 10:38:54;;;;;;;23.10;15.40;;;;;;;8.04;62.70;98822.00;5044915;28;20043;-83
2021/11/26 10:41:30;;;;;;;22.10;16.17;;;;;;;7.90;62.49;98830.69;5072440;28;20040;-84
2021/11/26 10:44:06;;;;;;;17.73;13.80;;;;;;;8.29;62.67;98890.97;5072224;28;20031;-83
2021/11/26 10:49:20;;;;;;;16.88;12.25;;;;;;;7.91;62.11;98791.09;5039657;28;20036;-84
2021/11/26 10:59:46;;;;;;;16.08;12.55;;;;;;;8.88;61.66;98715.47;5056120;28;20036;-83
2021/11/26 11:02:27;;;;;;;13.07;11.32;;;;;;;8.32;61.61;98651.28;5046159;28;20029;-83
2021/11/26 11:04:52;;;;;;;13.00;11.48;;;;;;;8.98;61.81;98725.72;5047617;28;20490;-82
2021/11/26 11:07:18;;;;;;;15.60;11.15;;;;;;;8.95;61.45;98701.56;5049769;28;20107;-83
2021/11/26 11:09:45;;;;;;;13.23;9.93;;;;;;;9.22;61.43;98771.94;5051442;28;20029;-83
2021/11/26 11:12:12;;;;;;;12.45;9.90;;;;;;;8.91;61.27;98745.88;5047021;28;20033;-82
2021/11/26 11:14:39;;;;;;;12.30;9.73;;;;;;;9.12;61.64;98800.38;5057110;28;20083;-82
2021/11/26 11:17:05;;;;;;;11.63;10.05;;;;;;;8.84;62.13;98782.66;5062921;28;20041;-82
2021/11/26 11:19:31;;;;;;;14.77;10.90;;;;;;;9.04;61.86;98816.31;5079333;28;20525;-83
2021/11/26 11:21:58;;;;;;;17.25;13.20;;;;;;;9.02;62.06;98784.88;5049300;28;20033;-82
2021/11/26 11:24:27;;;;;;;12.95;10.50;;;;;;;8.60;62.24;98738.25;5054274;28;20481;-82
2021/11/26 11:26:53;;;;;;;13.82;12.23;;;;;;;8.82;62.26;98784.66;5047486;28;20043;-82
2021/11/26 11:29:22;;;;;;;12.68;11.05;;;;;;;8.45;62.24;98704.06;5055995;28;20029;-83
2021/11/26 11:31:48;;;;;;;18.23;13.82;;;;;;;8.25;62.06;98679.31;5034770;28;20025;-82
2021/11/26 11:34:18;;;;;;;13.50;10.90;;;;;;;8.98;62.32;98778.38;5050506;28;20016;-82